Time;durP1;ratioP1;P1;durP2;ratioP2;P2;SDS_P1;SDS_P2;PMS_P1;PMS_P2;Temp;Humidity;BMP_temperature;BMP_pressure;BME280_temperature;BME280_humidity;BME280_pressure;Samples;Min_cycle;Max_cycle;Signal;HPM_P1;HPM_P2
2022/09/03 00:02:21;;;;;;;2.53;2.10;;;;;;;16.73;87.79;95969.53;5038022;28;20205;-69
2022/09/03 00:04:54;;;;;;;2.60;1.92;;;;;;;16.73;84.56;95980.16;5037872;28;20657;-69
2022/09/03 00:07:30;;;;;;;3.70;2.42;;;;;;;16.72;88.86;95974.00;5038464;28;20232;-69
2022/09/03 00:10:03;;;;;;;3.00;2.15;;;;;;;16.68;86.81;95972.03;5037941;28;20202;-69
2022/09/03 00:12:36;;;;;;;4.80;2.22;;;;;;;16.61;86.16;95963.28;5037664;28;20201;-69
2022/09/03 00:15:05;;;;;;;2.67;1.95;;;;;;;16.55;83.14;95961.53;5038162;28;20237;-69
2022/09/03 00:17:35;;;;;;;4.00;2.05;;;;;;;16.65;84.58;95962.66;5038539;28;20200;-70
2022/09/03 00:20:07;;;;;;;2.75;2.22;;;;;;;16.65;84.90;95956.53;5037034;28;20213;-69
2022/09/03 00:22:39;;;;;;;3.83;2.10;;;;;;;16.70;84.98;95961.97;5037906;28;20202;-69
2022/09/03 00:25:11;;;;;;;2.33;1.75;;;;;;;16.56;84.36;95957.84;5038020;28;20197;-69
2022/09/03 00:27:41;;;;;;;3.88;2.15;;;;;;;16.48;86.06;95963.41;5038151;28;20201;-69
2022/09/03 00:30:11;;;;;;;2.25;2.03;;;;;;;16.55;86.78;95956.22;5037765;28;21013;-69
2022/09/03 00:32:42;;;;;;;2.67;1.80;;;;;;;16.52;86.04;95956.63;5037564;28;20317;-69
2022/09/03 00:35:16;;;;;;;3.55;2.05;;;;;;;16.50;87.22;95948.88;5037817;28;20201;-69
2022/09/03 00:37:44;;;;;;;2.70;1.90;;;;;;;16.52;85.72;95962.78;5037502;28;20197;-69
2022/09/03 00:40:23;;;;;;;4.32;2.17;;;;;;;16.56;86.16;95955.97;5037740;28;20202;-69
2022/09/03 00:43:00;;;;;;;3.47;2.10;;;;;;;16.62;86.10;95956.94;5034082;28;20211;-69
2022/09/03 00:45:34;;;;;;;3.95;2.30;;;;;;;16.56;86.52;95948.00;5037247;28;20236;-69
2022/09/03 00:48:10;;;;;;;3.47;1.92;;;;;;;16.47;86.52;95940.53;5037571;28;20213;-69
2022/09/03 00:50:46;;;;;;;4.45;2.22;;;;;;;16.21;89.27;95938.09;5037196;28;20201;-69
2022/09/03 00:53:20;;;;;;;10.48;2.10;;;;;;;16.25;87.45;95936.59;5037293;28;21258;-69
2022/09/03 00:55:57;;;;;;;4.85;2.33;;;;;;;16.15;87.65;95938.97;5037294;28;20609;-69
2022/09/03 00:58:44;;;;;;;3.55;2.08;;;;;;;16.10;87.52;95946.78;5037277;28;20715;-69
2022/09/03 01:01:16;;;;;;;2.40;2.10;;;;;;;16.11;87.13;95951.03;5037006;28;20220;-69
2022/09/03 01:03:53;;;;;;;4.30;2.08;;;;;;;16.07;86.39;95949.06;5037240;28;20198;-69
2022/09/03 01:06:32;;;;;;;2.63;2.13;;;;;;;16.09;86.47;95947.81;5036865;28;20224;-69
2022/09/03 01:09:14;;;;;;;3.33;2.38;;;;;;;15.90;86.36;95955.94;5037390;28;20193;-69
2022/09/03 01:11:58;;;;;;;10.30;2.55;;;;;;;15.84;86.25;95960.25;5036471;28;20201;-69
2022/09/03 01:14:34;;;;;;;4.28;2.35;;;;;;;15.85;86.38;95959.25;5037197;28;20204;-69
2022/09/03 01:17:12;;;;;;;2.42;2.00;;;;;;;15.66;86.67;95961.25;5036228;28;20598;-69
2022/09/03 01:20:04;;;;;;;4.35;2.20;;;;;;;15.93;86.67;95961.63;5037056;28;20228;-69
2022/09/03 01:23:01;;;;;;;2.90;2.20;;;;;;;15.93;85.92;95961.63;5036116;28;20206;-69
2022/09/03 01:25:44;;;;;;;2.45;2.03;;;;;;;15.88;85.58;95958.81;5033772;28;20229;-69
2022/09/03 01:28:21;;;;;;;3.05;2.13;;;;;;;15.90;86.19;95961.25;5037081;28;20205;-69
2022/09/03 01:30:56;;;;;;;6.68;2.20;;;;;;;15.86;87.46;95954.75;5036944;28;20200;-69
2022/09/03 01:33:31;;;;;;;3.28;2.28;;;;;;;15.78;88.30;95962.16;5036009;28;20203;-69
2022/09/03 01:36:08;;;;;;;2.20;2.00;;;;;;;15.78;88.79;95956.84;5036785;28;20270;-69
2022/09/03 01:38:40;;;;;;;3.33;2.35;;;;;;;15.70;89.43;95957.91;5036793;28;20225;-69
2022/09/03 01:44:15;;;;;;;5.15;2.30;;;;;;;15.62;89.51;95957.38;5034238;28;20227;-69
2022/09/03 01:46:44;;;;;;;4.05;2.42;;;;;;;15.28;91.05;95955.13;5036329;28;20228;-69
2022/09/03 01:49:21;;;;;;;3.78;2.38;;;;;;;15.14;91.64;95953.53;5036113;28;20201;-69
2022/09/03 01:51:54;;;;;;;7.90;2.47;;;;;;;15.07;92.01;95954.56;5036518;28;20335;-69
2022/09/03 01:54:36;;;;;;;6.07;2.50;;;;;;;15.18;91.82;95949.41;5035884;28;20645;-69
2022/09/03 01:57:28;;;;;;;2.38;2.10;;;;;;;15.28;91.48;95944.50;5036164;28;20232;-69
2022/09/03 02:00:01;;;;;;;4.57;2.38;;;;;;;15.30;92.06;95945.91;5036643;28;20732;-69
2022/09/03 02:02:29;;;;;;;3.58;2.63;;;;;;;15.15;92.14;95943.72;5035469;28;20204;-69
2022/09/03 02:05:01;;;;;;;3.63;2.20;;;;;;;15.13;93.59;95933.31;5036088;28;20300;-69
2022/09/03 02:07:33;;;;;;;2.95;2.40;;;;;;;15.16;92.29;95935.56;5036530;28;21145;-69
2022/09/03 02:10:00;;;;;;;3.47;2.20;;;;;;;15.18;93.08;95933.50;5035688;28;20263;-69
2022/09/03 02:12:32;;;;;;;6.00;2.55;;;;;;;15.20;91.82;95946.53;5035244;28;20204;-69
2022/09/03 02:15:02;;;;;;;4.00;2.53;;;;;;;15.06;91.14;95944.97;5036375;28;20311;-69
2022/09/03 02:17:29;;;;;;;3.00;2.35;;;;;;;15.16;90.67;95935.56;5036346;28;20220;-69
2022/09/03 02:19:55;;;;;;;5.32;2.15;;;;;;;15.27;91.84;95942.88;5035072;28;20224;-69
2022/09/03 02:22:22;;;;;;;6.93;2.72;;;;;;;15.36;92.51;95944.25;5036091;28;20236;-69
2022/09/03 02:24:49;;;;;;;5.45;2.30;;;;;;;15.33;93.66;95947.34;5035941;28;20588;-68
2022/09/03 02:27:16;;;;;;;3.35;2.33;;;;;;;15.38;93.18;95950.16;5035980;28;20224;-68
2022/09/03 02:29:42;;;;;;;3.22;2.42;;;;;;;15.29;93.89;95949.59;5036056;28;20569;-69
2022/09/03 02:32:10;;;;;;;3.28;2.15;;;;;;;15.24;91.93;95958.44;5036126;28;20208;-69
2022/09/03 02:34:36;;;;;;;2.90;2.45;;;;;;;15.18;91.36;95953.94;5031735;28;21147;-69
2022/09/03 02:37:12;;;;;;;5.47;2.50;;;;;;;15.39;91.58;95952.59;5036479;28;20244;-69
2022/09/03 02:39:40;;;;;;;3.65;2.50;;;;;;;15.33;91.43;95957.97;5035619;28;20246;-69
2022/09/03 02:42:07;;;;;;;3.58;2.30;;;;;;;15.38;93.18;95958.13;5035844;28;20263;-68
2022/09/03 02:44:37;;;;;;;5.57;2.40;;;;;;;15.46;92.33;95957.88;5033440;28;20252;-69
2022/09/03 02:47:05;;;;;;;7.00;2.30;;;;;;;15.32;93.26;95959.81;5036557;28;20271;-69
2022/09/03 02:49:34;;;;;;;2.97;2.10;;;;;;;15.35;91.39;95963.84;5034930;28;20740;-69
2022/09/03 02:52:04;;;;;;;4.78;2.63;;;;;;;15.15;92.51;95976.41;5035310;28;20197;-69
2022/09/03 02:54:32;;;;;;;3.55;2.50;;;;;;;15.19;92.71;95979.44;5035602;28;20232;-69
2022/09/03 02:56:58;;;;;;;5.38;2.47;;;;;;;15.15;92.72;95976.41;5035962;28;20260;-69
2022/09/03 02:59:27;;;;;;;3.53;2.55;;;;;;;15.18;91.71;95977.81;5035658;28;20228;-69
2022/09/03 03:01:53;;;;;;;2.70;2.00;;;;;;;15.17;93.35;95979.63;5035876;28;20247;-69
2022/09/03 03:04:20;;;;;;;6.57;2.38;;;;;;;15.17;91.21;95973.53;5034501;28;20197;-69
2022/09/03 03:06:49;;;;;;;4.47;2.67;;;;;;;15.27;91.67;95972.06;5035504;28;20217;-69
2022/09/03 03:09:16;;;;;;;3.47;2.25;;;;;;;15.20;91.59;95978.41;5035934;28;20197;-69
2022/09/03 03:11:43;;;;;;;3.75;2.80;;;;;;;15.26;91.89;95986.38;5035378;28;20201;-69
2022/09/03 03:14:09;;;;;;;2.10;1.88;;;;;;;15.20;94.69;95973.94;5034752;28;20201;-69
2022/09/03 03:16:36;;;;;;;2.97;2.50;;;;;;;15.14;95.28;95974.75;5035852;28;20236;-69
2022/09/03 03:19:03;;;;;;;4.68;2.22;;;;;;;15.07;94.20;95979.28;5035801;28;20228;-69
2022/09/03 03:21:29;;;;;;;7.13;2.45;;;;;;;15.03;94.34;95983.41;5035333;28;20205;-69
2022/09/03 03:23:57;;;;;;;3.30;2.22;;;;;;;15.11;95.34;95985.81;5035136;28;20688;-69
2022/09/03 03:26:24;;;;;;;2.92;2.40;;;;;;;14.93;94.06;95998.09;5036850;28;20311;-69
2022/09/03 03:28:56;;;;;;;3.03;2.35;;;;;;;15.14;94.23;96001.31;5038952;28;20201;-69
2022/09/03 03:31:23;;;;;;;3.40;2.20;;;;;;;15.15;96.05;96008.25;5038591;28;20255;-69
2022/09/03 03:33:51;;;;;;;2.40;2.15;;;;;;;15.24;97.71;96009.66;5039409;28;20209;-69
2022/09/03 03:36:18;;;;;;;3.88;2.65;;;;;;;15.23;97.53;96015.19;5038523;28;20256;-69
2022/09/03 03:38:45;;;;;;;3.15;2.38;;;;;;;15.21;97.88;96017.22;5038740;28;20566;-69
2022/09/03 03:41:14;;;;;;;4.18;2.40;;;;;;;15.23;98.68;96010.69;5038725;28;20201;-69
2022/09/03 03:43:42;;;;;;;5.18;2.30;;;;;;;15.13;98.65;96006.81;5035662;28;20300;-69
2022/09/03 03:46:09;;;;;;;3.50;2.58;;;;;;;15.18;97.28;96007.81;5038005;28;20427;-69
2022/09/03 03:48:36;;;;;;;4.13;2.67;;;;;;;15.06;96.50;95995.41;5039087;28;20299;-69
2022/09/03 03:51:05;;;;;;;4.05;2.55;;;;;;;15.17;97.47;96000.88;5038429;28;20233;-69
2022/09/03 03:53:32;;;;;;;4.18;2.55;;;;;;;15.24;97.69;96002.50;5038380;28;20207;-69
2022/09/03 03:56:00;;;;;;;3.85;2.50;;;;;;;15.29;98.14;96010.66;5038304;28;20233;-68
2022/09/03 03:58:30;;;;;;;5.03;2.35;;;;;;;15.42;98.20;96004.47;5038840;28;20205;-69
2022/09/03 04:01:04;;;;;;;3.50;2.67;;;;;;;15.39;98.92;96013.69;5037625;28;20366;-69
2022/09/03 04:03:31;;;;;;;2.95;2.35;;;;;;;15.24;97.29;96013.13;5038095;28;20197;-69
2022/09/03 04:05:59;;;;;;;2.58;2.17;;;;;;;15.24;99.04;96016.81;5037856;28;20228;-68
2022/09/03 04:08:26;;;;;;;3.45;2.42;;;;;;;15.29;100.00;96015.16;5038561;28;20671;-69
2022/09/03 04:10:52;;;;;;;4.80;2.63;;;;;;;15.21;100.00;96015.41;5037693;28;20689;-69
2022/09/03 04:13:19;;;;;;;3.00;2.25;;;;;;;15.21;98.50;96018.06;5038296;28;20229;-69
2022/09/03 04:15:47;;;;;;;3.58;2.20;;;;;;;15.39;98.01;96010.22;5038227;28;20221;-69
2022/09/03 04:18:13;;;;;;;3.33;2.15;;;;;;;15.29;97.39;96015.16;5037846;28;20576;-69
2022/09/03 04:20:40;;;;;;;5.38;2.45;;;;;;;15.28;96.69;96003.72;5037983;28;20225;-69
2022/09/03 04:23:06;;;;;;;5.15;2.88;;;;;;;15.40;98.22;95993.25;5037601;28;20208;-68
2022/09/03 04:25:32;;;;;;;7.75;2.45;;;;;;;15.27;100.00;95990.66;5037802;28;20228;-68
2022/09/03 04:27:59;;;;;;;3.42;2.33;;;;;;;14.71;99.20;95989.63;5037581;28;20205;-69
2022/09/03 04:30:26;;;;;;;2.55;2.22;;;;;;;14.73;99.25;95992.88;5038472;28;20233;-69
2022/09/03 04:32:53;;;;;;;4.40;2.40;;;;;;;14.91;100.00;96000.97;5036736;28;20208;-68
2022/09/03 04:35:20;;;;;;;3.20;2.40;;;;;;;15.05;100.00;96009.72;5038509;28;20205;-69
2022/09/03 04:37:47;;;;;;;4.60;2.55;;;;;;;15.05;100.00;96013.19;5037496;28;20608;-69
2022/09/03 04:40:14;;;;;;;5.78;2.20;;;;;;;15.18;100.00;96014.97;5037334;28;20254;-69
2022/09/03 04:42:41;;;;;;;4.45;2.45;;;;;;;15.26;100.00;96015.56;5033735;28;20205;-68
2022/09/03 04:45:08;;;;;;;3.75;2.33;;;;;;;15.35;100.00;96014.28;5038942;28;20204;-69
2022/09/03 04:47:36;;;;;;;3.00;2.47;;;;;;;15.37;100.00;96020.22;5038264;28;20216;-69
2022/09/03 04:50:05;;;;;;;3.85;2.15;;;;;;;15.38;100.00;96013.91;5036911;28;20236;-69
2022/09/03 04:52:32;;;;;;;4.20;2.40;;;;;;;15.34;100.00;96018.00;5036383;28;20201;-68
2022/09/03 04:54:58;;;;;;;6.57;2.35;;;;;;;15.36;100.00;96010.63;5037939;28;20212;-69
2022/09/03 04:57:26;;;;;;;6.50;2.80;;;;;;;15.26;100.00;96010.25;5037331;28;20257;-69
2022/09/03 04:59:52;;;;;;;5.22;2.38;;;;;;;15.26;98.34;96018.22;5036984;28;20582;-69
2022/09/03 05:02:20;;;;;;;6.90;2.50;;;;;;;15.40;100.00;96020.63;5036992;28;20205;-69
2022/09/03 05:04:47;;;;;;;3.40;2.80;;;;;;;15.49;100.00;96023.84;5037285;28;20625;-69
2022/09/03 05:07:15;;;;;;;3.10;2.47;;;;;;;15.51;100.00;96019.13;5036894;28;20224;-68
2022/09/03 05:09:41;;;;;;;4.45;2.80;;;;;;;15.43;96.91;96032.66;5037058;28;20193;-68
2022/09/03 05:12:08;;;;;;;5.97;2.30;;;;;;;15.55;100.00;96021.13;5036580;28;20197;-68
2022/09/03 05:14:34;;;;;;;4.05;2.50;;;;;;;15.60;99.93;96025.84;5036339;28;20202;-69
2022/09/03 05:17:01;;;;;;;3.20;2.63;;;;;;;15.66;100.00;96027.66;5036812;28;20225;-69
2022/09/03 05:19:27;;;;;;;5.00;2.58;;;;;;;15.68;100.00;96028.22;5037055;28;20228;-68
2022/09/03 05:21:54;;;;;;;4.32;2.63;;;;;;;15.44;96.97;96039.59;5036374;28;20208;-68
2022/09/03 05:24:21;;;;;;;3.72;2.60;;;;;;;15.69;98.87;96027.22;5036928;28;20193;-69
2022/09/03 05:26:48;;;;;;;4.03;2.60;;;;;;;15.54;96.99;96031.97;5037060;28;20224;-68
2022/09/03 05:29:15;;;;;;;5.93;2.63;;;;;;;15.61;99.88;96036.25;5036720;28;20277;-69
2022/09/03 05:31:41;;;;;;;3.58;2.40;;;;;;;15.57;99.37;96028.94;5036888;28;20205;-68
2022/09/03 05:34:08;;;;;;;4.20;2.70;;;;;;;15.57;98.78;96031.56;5035503;28;20217;-68
2022/09/03 05:36:37;;;;;;;3.25;2.47;;;;;;;15.73;100.00;96023.09;5036674;28;20232;-68
2022/09/03 05:39:04;;;;;;;8.77;3.30;;;;;;;15.63;100.00;96028.06;5036427;28;20247;-68
2022/09/03 05:41:32;;;;;;;7.82;2.92;;;;;;;15.73;100.00;96023.91;5036698;28;20236;-68
2022/09/03 05:43:59;;;;;;;3.15;2.72;;;;;;;15.68;100.00;96022.91;5033159;28;20208;-68
2022/09/03 05:46:30;;;;;;;4.63;3.15;;;;;;;15.79;100.00;96019.59;5036938;28;20213;-68
2022/09/03 05:48:58;;;;;;;5.50;3.03;;;;;;;15.51;100.00;96019.13;5035006;28;20206;-67
2022/09/03 05:51:24;;;;;;;4.00;3.08;;;;;;;15.30;100.00;96004.31;5037012;28;20329;-68
2022/09/03 05:53:52;;;;;;;4.57;3.40;;;;;;;15.18;100.00;96002.50;5035909;28;20197;-68
2022/09/03 05:56:20;;;;;;;6.68;3.08;;;;;;;15.29;100.00;95993.94;5035373;28;20220;-69
2022/09/03 05:58:50;;;;;;;4.82;3.30;;;;;;;15.08;100.00;95990.72;5032186;28;20665;-67
2022/09/03 06:01:18;;;;;;;8.05;3.40;;;;;;;15.06;100.00;96006.84;5031843;28;20228;-67
2022/09/03 06:03:46;;;;;;;4.25;2.95;;;;;;;14.99;100.00;96029.94;5034290;28;20231;-68
2022/09/03 06:06:14;;;;;;;5.97;3.13;;;;;;;15.05;100.00;96018.47;5034532;28;20225;-67
2022/09/03 06:08:43;;;;;;;7.45;3.63;;;;;;;15.07;100.00;96023.56;5034949;28;20209;-69
2022/09/03 06:11:10;;;;;;;5.60;3.75;;;;;;;15.02;100.00;96012.78;5034336;28;20288;-69
2022/09/03 06:13:36;;;;;;;7.20;3.53;;;;;;;15.17;100.00;96031.91;5033733;28;20201;-69
2022/09/03 06:16:06;;;;;;;5.70;3.53;;;;;;;15.31;100.00;96029.03;5034809;28;20228;-69
2022/09/03 06:18:33;;;;;;;7.03;4.30;;;;;;;15.22;100.00;96032.13;5034329;28;20201;-68
2022/09/03 06:21:01;;;;;;;6.38;4.25;;;;;;;15.31;100.00;96047.59;5035031;28;20224;-69
2022/09/03 06:23:29;;;;;;;10.38;4.80;;;;;;;15.52;100.00;96058.75;5035941;28;20205;-68
2022/09/03 06:26:04;;;;;;;7.75;5.43;;;;;;;15.60;100.00;96053.19;5035566;28;20238;-68
2022/09/03 06:28:30;;;;;;;10.02;4.55;;;;;;;15.62;100.00;96050.34;5035629;28;20657;-69
2022/09/03 06:30:58;;;;;;;9.40;5.45;;;;;;;15.74;100.00;96048.66;5035785;28;20201;-70
2022/09/03 06:33:26;;;;;;;10.27;5.90;;;;;;;15.88;100.00;96053.66;5035687;28;20216;-70
2022/09/03 06:35:56;;;;;;;10.55;6.47;;;;;;;15.97;100.00;96047.91;5035737;28;20217;-70
2022/09/03 06:38:23;;;;;;;11.80;6.10;;;;;;;15.88;100.00;96057.16;5035584;28;20580;-71
2022/09/03 06:40:52;;;;;;;8.27;5.25;;;;;;;16.11;100.00;96049.41;5035324;28;20304;-70
2022/09/03 06:43:19;;;;;;;9.80;4.70;;;;;;;16.10;100.00;96061.09;5032124;28;20693;-71
2022/09/03 06:45:53;;;;;;;7.55;4.35;;;;;;;16.31;100.00;96066.06;5035558;28;20220;-70
2022/09/03 06:48:20;;;;;;;7.10;3.83;;;;;;;16.12;100.00;96059.00;5034082;28;20591;-70
2022/09/03 06:50:55;;;;;;;5.95;3.92;;;;;;;16.28;100.00;96061.19;5033156;28;20209;-70
2022/09/03 06:53:23;;;;;;;6.72;4.13;;;;;;;16.36;100.00;96060.94;5034247;28;21128;-71
2022/09/03 06:55:53;;;;;;;7.15;4.07;;;;;;;16.58;100.00;96056.84;5035444;28;20312;-71
2022/09/03 06:58:20;;;;;;;6.43;4.65;;;;;;;16.63;100.00;96052.50;5035708;28;21191;-70
2022/09/03 07:00:48;;;;;;;7.43;4.00;;;;;;;16.71;100.00;96052.25;5036132;28;20871;-70
2022/09/03 07:03:15;;;;;;;8.18;4.20;;;;;;;16.80;100.00;96045.59;5036365;28;20209;-71
2022/09/03 07:05:42;;;;;;;6.55;4.07;;;;;;;16.85;100.00;96042.25;5039281;28;20229;-70
2022/09/03 07:08:10;;;;;;;7.35;4.30;;;;;;;17.08;100.00;96037.13;5039401;28;20205;-70
2022/09/03 07:10:37;;;;;;;5.35;3.95;;;;;;;17.09;100.00;96040.38;5039195;28;20193;-71
2022/09/03 07:13:05;;;;;;;6.75;3.88;;;;;;;17.21;100.00;96038.59;5038112;28;20700;-68
2022/09/03 07:15:32;;;;;;;5.60;4.10;;;;;;;17.19;100.00;96035.31;5039539;28;20569;-68
2022/09/03 07:17:58;;;;;;;8.00;3.80;;;;;;;17.30;100.00;96037.28;5038601;28;20221;-68
2022/09/03 07:20:25;;;;;;;7.68;4.28;;;;;;;17.41;100.00;96033.91;5039750;28;20225;-68
2022/09/03 07:22:55;;;;;;;7.47;4.45;;;;;;;17.63;100.00;96037.72;5038248;28;20248;-70
2022/09/03 07:25:23;;;;;;;5.75;4.30;;;;;;;17.65;100.00;96034.81;5039592;28;20233;-69
2022/09/03 07:27:50;;;;;;;6.32;4.20;;;;;;;17.56;100.00;96031.63;5038313;28;20208;-68
2022/09/03 07:30:18;;;;;;;7.20;4.45;;;;;;;17.68;100.00;96035.19;5039460;28;20288;-68
2022/09/03 07:32:45;;;;;;;7.32;5.03;;;;;;;17.56;100.00;96031.63;5037880;28;20312;-68
2022/09/03 07:35:12;;;;;;;7.75;5.18;;;;;;;17.75;100.00;96027.91;5039501;28;20669;-69
2022/09/03 07:37:41;;;;;;;10.95;5.10;;;;;;;17.87;100.00;96028.75;5037423;28;20226;-68
2022/09/03 07:40:09;;;;;;;8.98;4.68;;;;;;;17.89;100.00;96026.69;5037672;28;20316;-68
2022/09/03 07:42:39;;;;;;;5.50;4.25;;;;;;;17.98;100.00;96030.66;5037061;28;20262;-68
2022/09/03 07:45:08;;;;;;;9.65;5.00;;;;;;;17.91;100.00;96024.63;5038910;28;20284;-68
2022/09/03 07:47:35;;;;;;;6.47;4.40;;;;;;;18.14;100.00;96033.50;5038207;28;20315;-68
2022/09/03 07:50:02;;;;;;;8.25;4.53;;;;;;;18.13;100.00;96029.19;5030615;28;20220;-68
2022/09/03 07:52:29;;;;;;;7.70;4.03;;;;;;;18.33;100.00;96031.56;5035649;28;20197;-68
2022/09/03 07:54:55;;;;;;;11.35;4.38;;;;;;;18.28;100.00;96031.44;5036396;28;20205;-68
2022/09/03 07:57:22;;;;;;;6.50;4.60;;;;;;;18.13;100.00;96031.84;5037726;28;20227;-68
2022/09/03 07:59:49;;;;;;;8.45;4.43;;;;;;;18.29;100.00;96025.06;5036813;28;20212;-68
2022/09/03 08:02:16;;;;;;;7.65;5.03;;;;;;;18.43;100.00;96030.78;5036542;28;20221;-68
2022/09/03 08:04:43;;;;;;;10.18;5.15;;;;;;;18.45;100.00;96042.03;5037140;28;20212;-68
2022/09/03 08:07:09;;;;;;;6.55;4.78;;;;;;;18.38;100.00;96038.66;5037255;28;20244;-68
2022/09/03 08:09:36;;;;;;;7.72;4.65;;;;;;;18.53;100.00;96041.72;5036794;28;20212;-68
2022/09/03 08:12:03;;;;;;;6.28;4.30;;;;;;;18.58;100.00;96044.50;5036314;28;20208;-68
2022/09/03 08:14:30;;;;;;;6.80;4.38;;;;;;;18.59;100.00;96047.97;5035061;28;20197;-68
2022/09/03 08:16:58;;;;;;;7.65;4.80;;;;;;;18.86;100.00;96041.94;5037094;28;20221;-68
2022/09/03 08:19:25;;;;;;;6.32;4.63;;;;;;;18.87;100.00;96042.78;5037325;28;20609;-68
2022/09/03 08:21:52;;;;;;;6.75;4.68;;;;;;;19.09;100.00;96045.47;5035269;28;20247;-69
2022/09/03 08:24:20;;;;;;;7.43;5.20;;;;;;;18.99;100.00;96047.06;5036028;28;20999;-68
2022/09/03 08:26:46;;;;;;;6.70;4.65;;;;;;;19.01;100.00;96042.31;5037262;28;20217;-69
2022/09/03 08:29:13;;;;;;;7.28;4.82;;;;;;;19.15;100.00;96041.84;5036804;28;20201;-69
2022/09/03 08:31:39;;;;;;;7.28;5.03;;;;;;;19.25;100.00;96043.94;5036311;28;20209;-68
2022/09/03 08:34:10;;;;;;;8.00;5.00;;;;;;;19.51;100.00;96041.53;5035802;28;20211;-69
2022/09/03 08:36:40;;;;;;;8.60;4.90;;;;;;;19.56;100.00;96038.19;5037960;28;20316;-68
2022/09/03 08:39:09;;;;;;;6.60;4.55;;;;;;;19.70;100.00;96038.50;5037348;28;20204;-68
2022/09/03 08:41:49;;;;;;;8.07;4.80;;;;;;;19.70;100.00;96041.16;5036912;28;20632;-68
2022/09/03 08:44:24;;;;;;;9.25;3.75;;;;;;;20.08;96.52;96045.91;5037206;28;20297;-68
2022/09/03 08:46:55;;;;;;;7.55;4.07;;;;;;;20.02;98.22;96049.53;5036851;28;20243;-68
2022/09/03 08:49:31;;;;;;;6.15;3.78;;;;;;;20.01;94.63;96043.41;5033042;28;20217;-68
2022/09/03 08:52:01;;;;;;;5.75;3.38;;;;;;;20.12;95.30;96053.22;5038053;28;20197;-68
2022/09/03 08:54:31;;;;;;;9.57;4.20;;;;;;;20.33;95.21;96031.94;5036493;28;20205;-68
2022/09/03 08:57:01;;;;;;;18.10;4.50;;;;;;;20.39;95.17;96035.50;5037020;28;20227;-68
2022/09/03 08:59:29;;;;;;;13.93;4.63;;;;;;;20.27;97.65;96032.88;5037559;28;20201;-68
2022/09/03 09:02:05;;;;;;;6.32;3.90;;;;;;;20.45;93.76;96037.22;5036258;28;20283;-68
2022/09/03 09:04:47;;;;;;;14.00;4.10;;;;;;;20.34;95.16;96033.56;5036186;28;20196;-68
2022/09/03 09:07:21;;;;;;;12.85;4.43;;;;;;;20.34;96.66;96030.88;5036993;28;20626;-68
2022/09/03 09:09:56;;;;;;;8.07;3.58;;;;;;;20.25;97.99;96034.19;5036746;28;20636;-68
2022/09/03 09:12:32;;;;;;;9.20;3.45;;;;;;;20.21;97.48;96033.03;5036254;28;20198;-68
2022/09/03 09:15:09;;;;;;;7.97;3.63;;;;;;;20.22;97.62;96035.47;5036540;28;20204;-68
2022/09/03 09:17:56;;;;;;;6.20;3.78;;;;;;;20.25;98.81;96034.19;5036964;28;20212;-68
2022/09/03 09:20:32;;;;;;;6.15;3.78;;;;;;;20.34;94.85;96032.72;5037078;28;20205;-68
2022/09/03 09:23:03;;;;;;;4.15;2.65;;;;;;;20.18;93.09;96044.22;5036652;28;20873;-68
2022/09/03 09:25:31;;;;;;;4.45;3.38;;;;;;;19.97;92.55;96039.56;5036553;28;20224;-68
2022/09/03 09:28:00;;;;;;;4.75;2.90;;;;;;;19.84;95.56;96037.13;5036312;28;21015;-68
2022/09/03 09:30:29;;;;;;;4.28;2.42;;;;;;;19.79;95.08;96044.25;5037301;28;20583;-68
2022/09/03 09:32:55;;;;;;;4.60;3.08;;;;;;;19.63;94.83;96051.16;5036147;28;20208;-68
2022/09/03 09:35:23;;;;;;;3.83;2.70;;;;;;;19.72;94.06;96055.09;5036864;28;20236;-68
2022/09/03 09:37:52;;;;;;;6.55;2.90;;;;;;;19.77;94.77;96047.16;5036279;28;20575;-68
2022/09/03 09:40:32;;;;;;;4.47;3.00;;;;;;;19.92;96.18;96054.69;5036783;28;20209;-68
2022/09/03 09:43:11;;;;;;;5.85;2.83;;;;;;;20.20;96.29;96044.81;5036200;28;20205;-68
2022/09/03 09:45:40;;;;;;;5.13;3.10;;;;;;;20.24;97.03;96043.28;5036156;28;20689;-68
2022/09/03 09:48:13;;;;;;;5.43;3.20;;;;;;;20.53;94.04;96047.50;5033865;28;20244;-68
2022/09/03 09:50:40;;;;;;;6.97;3.28;;;;;;;20.59;93.42;96046.56;5030772;28;20693;-68
2022/09/03 09:53:14;;;;;;;6.57;3.13;;;;;;;20.88;93.51;96030.19;5033578;28;20201;-68
2022/09/03 09:55:53;;;;;;;5.15;3.20;;;;;;;21.20;95.63;96040.03;5034335;28;20217;-68
2022/09/03 09:58:22;;;;;;;4.32;3.05;;;;;;;21.24;89.68;96030.44;5034382;28;21286;-69
2022/09/03 10:01:02;;;;;;;4.57;3.35;;;;;;;21.69;89.73;96031.03;5034409;28;20205;-69
2022/09/03 10:03:33;;;;;;;4.93;3.08;;;;;;;21.50;85.29;96035.09;5034976;28;20209;-69
2022/09/03 10:09:06;;;;;;;5.85;2.90;;;;;;;21.97;86.32;96045.06;5034334;28;20296;-69
2022/09/03 10:11:35;;;;;;;7.25;3.55;;;;;;;21.74;90.47;96033.78;5034685;28;20228;-69
2022/09/03 10:14:06;;;;;;;6.13;2.83;;;;;;;21.80;88.01;96030.09;5034171;28;20307;-69
2022/09/03 10:16:38;;;;;;;4.88;2.83;;;;;;;21.83;87.82;96024.22;5034924;28;20221;-69
2022/09/03 10:19:13;;;;;;;4.70;2.80;;;;;;;22.26;86.34;96022.31;5033470;28;20673;-69
2022/09/03 10:21:45;;;;;;;3.95;2.58;;;;;;;22.43;85.16;96034.56;5034051;28;20224;-69
2022/09/03 10:24:33;;;;;;;4.85;2.70;;;;;;;22.48;81.49;96034.63;5034244;28;20220;-69
2022/09/03 10:27:00;;;;;;;3.13;2.15;;;;;;;22.73;85.78;96026.75;5033607;28;20217;-69
2022/09/03 10:29:28;;;;;;;3.95;2.40;;;;;;;23.00;82.00;96027.53;5032829;28;20205;-69
2022/09/03 10:32:06;;;;;;;4.15;2.33;;;;;;;23.26;81.00;96024.75;5032363;28;20197;-69
2022/09/03 10:34:42;;;;;;;2.20;1.90;;;;;;;22.70;77.65;96030.75;5032011;28;20312;-69
2022/09/03 10:37:19;;;;;;;3.95;1.95;;;;;;;22.88;80.00;96041.13;5036142;28;20231;-69
2022/09/03 10:40:16;;;;;;;2.83;1.75;;;;;;;23.24;79.73;96026.88;5037384;28;20196;-69
2022/09/03 10:42:48;;;;;;;2.65;1.85;;;;;;;22.72;76.97;96035.88;5038078;28;20270;-69
2022/09/03 10:45:32;;;;;;;2.30;1.77;;;;;;;23.16;77.46;96029.25;5038824;28;20201;-69
2022/09/03 10:48:22;;;;;;;2.10;1.58;;;;;;;23.39;75.14;96022.38;5036841;28;20208;-69
2022/09/03 10:50:53;;;;;;;1.95;1.70;;;;;;;23.07;73.31;96025.44;5038207;28;20240;-69
2022/09/03 10:53:34;;;;;;;2.65;1.90;;;;;;;22.94;80.57;96023.16;5038328;28;20189;-70
2022/09/03 10:56:07;;;;;;;2.65;1.90;;;;;;;23.25;76.37;96016.94;5039024;28;20228;-69
2022/09/03 10:58:53;;;;;;;2.00;1.20;;;;;;;23.27;71.75;96014.78;5039413;28;20574;-69
2022/09/03 11:01:29;;;;;;;1.90;1.45;;;;;;;23.42;72.65;96013.81;5037961;28;20271;-69
2022/09/03 11:04:08;;;;;;;2.10;1.58;;;;;;;23.24;73.87;96007.25;5038030;28;20202;-69
2022/09/03 11:06:47;;;;;;;2.80;1.38;;;;;;;23.13;71.77;96010.94;5039409;28;20228;-69
2022/09/03 11:09:20;;;;;;;2.15;1.60;;;;;;;22.77;74.38;96007.19;5036455;28;20197;-69
2022/09/03 11:11:54;;;;;;;2.55;1.70;;;;;;;23.29;76.83;96000.00;5036902;28;20198;-69
2022/09/03 11:14:33;;;;;;;4.93;1.70;;;;;;;23.67;73.72;96005.03;5037819;28;21265;-69
2022/09/03 11:17:05;;;;;;;3.17;1.80;;;;;;;24.14;72.58;96001.97;5038631;28;20252;-70
2022/09/03 11:19:36;;;;;;;4.15;1.55;;;;;;;24.56;69.31;95995.31;5038272;28;20212;-69
2022/09/03 11:22:06;;;;;;;1.95;1.40;;;;;;;24.73;68.69;95997.75;5038859;28;20232;-69
2022/09/03 11:24:36;;;;;;;2.90;1.50;;;;;;;24.91;70.92;95986.41;5037465;28;20328;-69
2022/09/03 11:27:17;;;;;;;1.70;1.30;;;;;;;24.88;66.41;95986.97;5038721;28;20236;-70
2022/09/03 11:29:51;;;;;;;2.85;1.27;;;;;;;24.80;67.30;95976.72;5038341;28;20208;-70
2022/09/03 11:32:23;;;;;;;3.97;1.30;;;;;;;25.10;68.85;95972.13;5038511;28;20665;-69
2022/09/03 11:34:51;;;;;;;2.05;1.23;;;;;;;25.13;64.67;95965.34;5038399;28;20316;-69
2022/09/03 11:37:20;;;;;;;1.38;1.20;;;;;;;25.34;64.68;95967.72;5037669;28;20221;-70
2022/09/03 11:39:55;;;;;;;1.13;1.02;;;;;;;25.10;64.42;95963.22;5038465;28;20216;-69
2022/09/03 11:42:29;;;;;;;1.63;1.00;;;;;;;25.07;62.88;95961.88;5037625;28;20217;-69
2022/09/03 11:45:01;;;;;;;1.63;1.08;;;;;;;24.93;62.23;95966.19;5038561;28;20198;-70
2022/09/03 11:47:39;;;;;;;1.35;0.90;;;;;;;25.20;60.28;95955.91;5037768;28;21378;-70
2022/09/03 11:50:09;;;;;;;1.20;0.98;;;;;;;25.22;64.83;95954.53;5034735;28;21022;-69
2022/09/03 11:52:39;;;;;;;1.08;0.98;;;;;;;24.78;64.87;95947.34;5037764;28;20202;-69